createdAt,value
2024-05-09T00:03:41.291Z,76.90
2024-05-09T00:08:43.242Z,76.90
2024-05-09T00:13:45.056Z,76.80
2024-05-09T00:18:47.071Z,77.00
2024-05-09T00:23:48.966Z,77.10
2024-05-09T00:28:50.878Z,77.10
2024-05-09T00:33:54.198Z,77.20
2024-05-09T00:38:56.090Z,77.00
2024-05-09T00:43:57.977Z,76.70
2024-05-09T00:49:00.350Z,76.70
2024-05-09T00:54:02.530Z,76.70
2024-05-09T00:59:04.599Z,76.70
2024-05-09T01:04:06.922Z,76.90
2024-05-09T01:09:09.144Z,76.70
2024-05-09T01:14:10.944Z,76.80
2024-05-09T01:19:22.884Z,76.60
2024-05-09T01:24:24.822Z,76.90
2024-05-09T01:29:26.830Z,77.00
2024-05-09T01:34:28.773Z,77.10
2024-05-09T01:39:30.601Z,77.10
2024-05-09T01:44:32.468Z,76.90
2024-05-09T01:49:36.335Z,76.90
2024-05-09T01:54:38.204Z,76.50
2024-05-09T01:59:40.086Z,76.60
2024-05-09T02:04:42.090Z,76.80
2024-05-09T02:09:43.958Z,76.90
2024-05-09T02:14:45.741Z,76.80
2024-05-09T02:19:47.633Z,76.80
2024-05-09T02:24:49.434Z,77.00
2024-05-09T02:29:51.595Z,77.00
2024-05-09T02:34:53.393Z,77.10
2024-05-09T02:39:55.209Z,76.80
2024-05-09T02:44:56.995Z,76.80
2024-05-09T02:49:58.786Z,76.90
2024-05-09T02:55:00.602Z,77.20
2024-05-09T03:00:03.592Z,77.10
2024-05-09T03:05:06.662Z,77.10
2024-05-09T03:10:18.136Z,77.20
2024-05-09T03:15:24.274Z,77.40
2024-05-09T03:20:32.567Z,77.30
2024-05-09T03:25:36.587Z,77.00
2024-05-09T03:30:42.037Z,77.60
2024-05-09T03:35:45.014Z,77.30
2024-05-09T03:40:48.878Z,77.80
2024-05-09T03:45:51.461Z,77.60
2024-05-09T03:50:53.433Z,77.20
2024-05-09T03:55:56.971Z,77.00
2024-05-09T04:00:58.882Z,76.90
2024-05-09T04:06:00.715Z,77.00
2024-05-09T04:11:02.661Z,77.40
2024-05-09T04:16:04.841Z,77.10
2024-05-09T04:21:06.782Z,76.90
2024-05-09T04:26:08.852Z,77.30
2024-05-09T04:31:10.746Z,77.10
2024-05-09T04:36:12.663Z,76.70
2024-05-09T04:41:14.554Z,76.60
2024-05-09T04:46:16.370Z,76.40
2024-05-09T04:51:18.299Z,76.60
2024-05-09T04:56:20.163Z,76.30
2024-05-09T05:01:22.032Z,76.40
2024-05-09T05:06:23.957Z,76.20
2024-05-09T05:11:25.839Z,76.00
2024-05-09T05:16:27.719Z,76.00
2024-05-09T05:21:29.550Z,76.80
2024-05-09T05:26:31.691Z,75.50
2024-05-09T05:31:33.620Z,75.70
2024-05-09T05:36:35.421Z,75.80
2024-05-09T05:41:37.247Z,75.50
2024-05-09T05:46:39.083Z,75.30
2024-05-09T05:51:40.884Z,75.40
2024-05-09T05:56:42.750Z,75.20
2024-05-09T06:01:44.572Z,75.30
2024-05-09T06:06:46.514Z,75.80
2024-05-09T06:11:48.465Z,75.50
2024-05-09T06:16:50.417Z,75.30
2024-05-09T06:21:52.285Z,75.30
2024-05-09T06:26:54.085Z,75.20
2024-05-09T06:31:57.167Z,75.50
2024-05-09T06:37:01.262Z,74.90
2024-05-09T06:42:03.178Z,74.70
2024-05-09T06:47:05.101Z,74.80
2024-05-09T06:52:07.113Z,75.00
2024-05-09T06:57:08.900Z,74.90
2024-05-09T07:02:10.940Z,74.30
2024-05-09T07:07:12.756Z,74.10
2024-05-09T07:12:14.742Z,74.30
2024-05-09T07:17:17.355Z,74.20
2024-05-09T07:22:19.211Z,73.90
2024-05-09T07:27:21.015Z,73.90
2024-05-09T07:32:23.009Z,73.50
2024-05-09T07:37:24.994Z,72.80
2024-05-09T07:42:26.843Z,72.60
2024-05-09T07:48:57.227Z,72.20
2024-05-09T07:53:35.358Z,72.50
2024-05-09T07:58:12.963Z,72.40
2024-05-09T08:03:14.914Z,72.80
2024-05-09T08:08:16.898Z,70.80
2024-05-09T08:13:18.986Z,70.30
2024-05-09T08:18:20.956Z,71.20
2024-05-09T08:23:23.795Z,71.00
2024-05-09T08:28:25.681Z,70.10
2024-05-09T08:33:27.697Z,69.70
2024-05-09T08:38:29.595Z,68.50
2024-05-09T08:43:31.509Z,67.40
2024-05-09T08:48:36.812Z,69.40
2024-05-09T08:53:38.895Z,68.00
2024-05-09T08:58:42.580Z,69.10
2024-05-09T09:03:45.743Z,69.10
2024-05-09T09:08:48.574Z,69.20
2024-05-09T09:13:50.449Z,68.20
2024-05-09T09:18:53.408Z,69.30
2024-05-09T09:23:55.712Z,67.50
2024-05-09T09:29:04.432Z,69.00
2024-05-09T09:34:08.327Z,69.80
2024-05-09T09:39:10.630Z,69.90
2024-05-09T09:44:12.573Z,67.00
2024-05-09T09:49:15.464Z,66.70
2024-05-09T09:54:19.119Z,67.60
2024-05-09T09:59:21.910Z,66.10
2024-05-09T10:04:24.808Z,67.30
2024-05-09T10:09:27.052Z,64.90
2024-05-09T10:14:30.993Z,65.70
2024-05-09T10:19:35.310Z,63.20
2024-05-09T10:24:53.875Z,64.30
2024-05-09T10:29:57.690Z,64.80
2024-05-09T10:35:15.017Z,66.30
2024-05-09T10:40:26.100Z,64.10
2024-05-09T10:45:32.752Z,65.20
2024-05-09T10:50:35.688Z,63.20
2024-05-09T10:55:37.570Z,63.20
2024-05-09T11:00:41.197Z,64.30
2024-05-09T11:05:43.514Z,63.80
2024-05-09T11:10:45.935Z,63.20
2024-05-09T11:15:47.806Z,63.60
2024-05-09T11:20:51.301Z,63.50
2024-05-09T11:25:57.890Z,63.80
2024-05-09T11:31:10.534Z,63.60
2024-05-09T11:36:13.471Z,64.20
2024-05-09T11:41:18.798Z,63.40
2024-05-09T11:46:20.948Z,63.60
2024-05-09T11:51:22.874Z,62.90
2024-05-09T11:56:24.717Z,62.50
2024-05-09T12:01:27.836Z,62.80
2024-05-09T12:06:30.189Z,63.50
2024-05-09T12:11:32.252Z,64.00
2024-05-09T12:16:34.716Z,64.10
2024-05-09T12:21:36.672Z,61.90
2024-05-09T12:26:38.647Z,63.00
2024-05-09T12:31:40.485Z,63.00
2024-05-09T12:36:43.112Z,63.90
2024-05-09T12:41:45.012Z,61.70
2024-05-09T12:46:47.108Z,62.00
2024-05-09T12:51:48.915Z,62.40
2024-05-09T12:56:51.066Z,62.40
2024-05-09T13:01:52.951Z,61.90
2024-05-09T13:06:54.852Z,58.50
2024-05-09T13:11:57.101Z,59.30
2024-05-09T13:16:59.065Z,59.30
2024-05-09T13:22:00.970Z,58.80
2024-05-09T13:27:02.891Z,57.60
2024-05-09T13:32:05.134Z,55.90
2024-05-09T13:37:07.286Z,57.70
2024-05-09T13:42:10.036Z,57.70
2024-05-09T13:47:12.469Z,56.80
2024-05-09T13:52:14.516Z,55.90
2024-05-09T13:57:16.734Z,55.50
2024-05-09T14:02:18.889Z,54.50
2024-05-09T14:07:20.920Z,53.60
2024-05-09T14:12:22.739Z,54.60
2024-05-09T14:17:24.864Z,53.50
2024-05-09T14:22:26.794Z,53.90
2024-05-09T14:27:29.792Z,55.40
2024-05-09T14:32:31.729Z,53.30
2024-05-09T14:37:35.505Z,54.60
2024-05-09T14:42:38.292Z,55.10
2024-05-09T14:47:40.612Z,53.90
2024-05-09T14:52:42.594Z,53.10
2024-05-09T14:57:44.454Z,53.80
2024-05-09T15:02:46.589Z,53.10
2024-05-09T15:07:49.901Z,54.00
2024-05-09T15:12:51.756Z,53.50
2024-05-09T15:17:54.551Z,53.40
2024-05-09T15:22:56.484Z,54.50
2024-05-09T15:27:58.447Z,54.20
2024-05-09T15:33:01.257Z,55.10
2024-05-09T15:38:04.413Z,54.50
2024-05-09T15:43:07.149Z,55.10
2024-05-09T15:48:10.729Z,55.60
2024-05-09T15:53:13.897Z,54.50
2024-05-09T15:58:16.074Z,56.10
2024-05-09T16:03:19.551Z,56.30
2024-05-09T16:08:21.479Z,56.80
2024-05-09T16:13:23.411Z,57.20
2024-05-09T16:18:25.616Z,57.40
2024-05-09T16:23:28.492Z,57.80
2024-05-09T16:28:30.474Z,55.60
2024-05-09T16:33:32.644Z,57.00
2024-05-09T16:38:34.639Z,57.10
2024-05-09T16:43:36.444Z,56.90
2024-05-09T16:48:40.821Z,56.60
2024-05-09T16:53:42.807Z,56.90
2024-05-09T16:58:44.764Z,56.20
2024-05-09T17:03:46.765Z,57.70
2024-05-09T17:08:49.453Z,55.80
2024-05-09T17:13:51.249Z,56.00
2024-05-09T17:18:53.171Z,55.60
2024-05-09T17:23:55.726Z,56.80
2024-05-09T17:28:57.798Z,56.30
2024-05-09T17:33:59.858Z,56.80
2024-05-09T17:39:01.995Z,59.30
2024-05-09T17:44:04.007Z,59.50
2024-05-09T17:49:06.001Z,59.80
2024-05-09T17:54:07.894Z,59.50
2024-05-09T17:59:11.557Z,60.50
2024-05-09T18:04:14.017Z,59.20
2024-05-09T18:09:15.935Z,58.90
2024-05-09T18:14:17.972Z,59.60
2024-05-09T18:19:19.943Z,60.40
2024-05-09T18:24:22.210Z,60.30
2024-05-09T18:29:24.069Z,61.00
2024-05-09T18:34:25.960Z,61.30
2024-05-09T18:39:27.903Z,60.90
2024-05-09T18:44:31.231Z,61.90
2024-05-09T18:49:33.187Z,63.00
2024-05-09T18:54:35.163Z,62.90
2024-05-09T18:59:37.046Z,63.40
2024-05-09T19:04:39.154Z,63.60
2024-05-09T19:09:41.184Z,64.10
2024-05-09T19:14:43.642Z,64.30
2024-05-09T19:19:45.596Z,64.30
2024-05-09T19:24:47.518Z,64.90
2024-05-09T19:29:49.330Z,65.50
2024-05-09T19:34:51.144Z,66.30
2024-05-09T19:39:52.989Z,66.50
2024-05-09T19:44:54.874Z,66.30
2024-05-09T19:49:56.789Z,66.80
2024-05-09T19:54:58.665Z,66.80
2024-05-09T20:00:00.923Z,67.30
2024-05-09T20:05:03.700Z,67.50
2024-05-09T20:10:13.072Z,67.50
2024-05-09T20:15:18.275Z,67.90
2024-05-09T20:20:28.429Z,68.20
2024-05-09T20:25:38.404Z,68.50
2024-05-09T20:30:40.374Z,68.40
2024-05-09T20:35:42.365Z,68.50
2024-05-09T20:40:44.263Z,68.60
2024-05-09T20:45:46.199Z,68.60
2024-05-09T20:50:48.198Z,69.00
2024-05-09T20:55:50.091Z,68.90
2024-05-09T21:00:51.991Z,68.90
2024-05-09T21:05:54.100Z,69.20
2024-05-09T21:10:56.136Z,69.10
2024-05-09T21:15:58.155Z,69.30
2024-05-09T21:21:00.051Z,69.00
2024-05-09T21:26:01.859Z,69.60
2024-05-09T21:31:03.879Z,69.50
2024-05-09T21:36:08.676Z,69.10
2024-05-09T21:41:10.510Z,69.60
2024-05-09T21:46:12.344Z,69.80
2024-05-09T21:51:14.971Z,69.70
2024-05-09T21:56:16.812Z,70.10
2024-05-09T22:01:18.723Z,70.90
2024-05-09T22:06:20.592Z,70.60
2024-05-09T22:11:22.453Z,70.10
2024-05-09T22:16:24.689Z,70.10
2024-05-09T22:21:26.636Z,70.70
2024-05-09T22:26:28.436Z,70.50
2024-05-09T22:31:30.280Z,70.50
2024-05-09T22:36:32.199Z,70.30
2024-05-09T22:41:34.009Z,70.20
2024-05-09T22:46:35.857Z,70.60
2024-05-09T22:51:37.755Z,70.30
2024-05-09T22:56:39.704Z,70.20
2024-05-09T23:01:41.581Z,70.50
2024-05-09T23:06:43.446Z,70.50
2024-05-09T23:11:45.879Z,70.80
2024-05-09T23:16:47.784Z,70.90
2024-05-09T23:21:49.749Z,70.70
2024-05-09T23:26:51.566Z,70.60
2024-05-09T23:31:53.447Z,70.60
2024-05-09T23:36:55.269Z,70.70
2024-05-09T23:41:57.061Z,71.10
2024-05-09T23:46:58.875Z,71.00
2024-05-09T23:52:00.761Z,70.50
2024-05-09T23:57:02.587Z,70.90
